Time;durP1;ratioP1;P1;durP2;ratioP2;P2;SDS_P1;SDS_P2;PMS_P1;PMS_P2;Temp;Humidity;BMP_temperature;BMP_pressure;BME280_temperature;BME280_humidity;BME280_pressure;Samples;Min_cycle;Max_cycle;Signal;HPM_P1;HPM_P2
2021/12/07 00:00:18;;;;;;;9.87;6.43;;;;;;;7.94;100.00;93592.50;5092861;28;20845;-79
2021/12/07 00:02:45;;;;;;;10.40;6.47;;;;;;;7.83;100.00;93590.13;5073842;28;20543;-79
2021/12/07 00:05:13;;;;;;;9.83;7.07;;;;;;;7.73;100.00;93591.94;5092860;28;20443;-79
2021/12/07 00:07:43;;;;;;;9.50;6.20;;;;;;;7.57;100.00;93597.78;5093788;28;20452;-79
2021/12/07 00:10:10;;;;;;;6.83;6.00;;;;;;;7.47;100.00;93600.41;5096931;28;20486;-79
2021/12/07 00:12:42;;;;;;;6.90;5.20;;;;;;;7.43;100.00;93595.63;5097517;28;20472;-79
2021/12/07 00:15:12;;;;;;;6.73;5.27;;;;;;;7.34;100.00;93596.50;5097347;28;20436;-79
2021/12/07 00:17:39;;;;;;;6.43;5.20;;;;;;;7.32;100.00;93594.03;5097588;28;20527;-79
2021/12/07 00:20:12;;;;;;;3.90;3.57;;;;;;;7.24;100.00;93593.94;5097218;28;20436;-79
2021/12/07 00:22:39;;;;;;;3.43;3.13;;;;;;;7.35;100.00;93604.19;5097457;28;20522;-79
2021/12/07 00:25:07;;;;;;;3.50;3.20;;;;;;;7.34;100.00;93599.94;5096792;28;20433;-79
2021/12/07 00:27:34;;;;;;;3.60;3.27;;;;;;;7.32;100.00;93604.47;5076909;28;20531;-78
2021/12/07 00:30:04;;;;;;;3.80;3.50;;;;;;;7.37;100.00;93599.63;5095773;28;20480;-79
2021/12/07 00:32:35;;;;;;;4.53;3.80;;;;;;;7.36;100.00;93618.06;5096077;28;20454;-79
2021/12/07 00:35:25;;;;;;;4.30;3.50;;;;;;;7.39;100.00;93613.38;5095707;28;20961;-79
2021/12/07 00:37:57;;;;;;;3.40;3.10;;;;;;;7.50;100.00;93616.75;5095743;28;20448;-79
2021/12/07 00:40:26;;;;;;;9.30;5.10;;;;;;;7.41;100.00;93616.66;5095392;28;20436;-79
2021/12/07 00:42:53;;;;;;;5.27;4.63;;;;;;;7.46;100.00;93617.03;5060646;28;20450;-79
2021/12/07 00:45:22;;;;;;;8.90;4.50;;;;;;;7.54;100.00;93612.91;5095508;28;20921;-79
2021/12/07 00:47:51;;;;;;;4.50;3.80;;;;;;;7.45;100.00;93604.97;5095463;28;20934;-79
2021/12/07 00:50:19;;;;;;;4.30;3.90;;;;;;;7.47;100.00;93597.81;5095808;28;20502;-79
2021/12/07 00:52:46;;;;;;;4.00;3.33;;;;;;;7.39;100.00;93600.31;5095589;28;20829;-79
2021/12/07 00:55:17;;;;;;;4.20;3.80;;;;;;;7.30;100.00;93595.97;5095223;28;20966;-79
2021/12/07 00:57:44;;;;;;;3.00;2.77;;;;;;;7.35;100.00;93603.34;5076360;28;20953;-79
2021/12/07 01:00:14;;;;;;;2.93;2.73;;;;;;;7.35;100.00;93593.75;5095263;28;20479;-79
2021/12/07 01:02:42;;;;;;;3.60;3.30;;;;;;;7.39;100.00;93595.09;5095329;28;20805;-79
2021/12/07 01:05:16;;;;;;;3.70;2.93;;;;;;;7.42;100.00;93591.38;5095043;28;20439;-79
2021/12/07 01:08:09;;;;;;;3.50;2.87;;;;;;;7.39;100.00;93597.72;5095369;28;20469;-79
2021/12/07 01:27:07;;;;;;;6.40;2.57;;;;;;;7.16;100.00;93609.44;5094744;28;20463;-79
2021/12/07 01:29:35;;;;;;;3.80;2.77;;;;;;;7.11;100.00;93596.81;5094454;28;20484;-79
2021/12/07 01:32:11;;;;;;;3.00;2.70;;;;;;;7.01;100.00;93596.03;5094496;28;20452;-79
2021/12/07 01:35:13;;;;;;;3.33;3.03;;;;;;;6.96;100.00;93592.22;5094724;28;20777;-79
2021/12/07 01:37:53;;;;;;;2.93;2.67;;;;;;;6.94;100.00;93587.13;5094756;28;20432;-79
2021/12/07 01:40:35;;;;;;;2.60;2.37;;;;;;;6.99;100.00;93595.34;5094326;28;20526;-79
2021/12/07 01:46:03;;;;;;;2.67;2.07;;;;;;;7.20;100.00;93594.31;5094253;28;20443;-79
2021/12/07 01:51:35;;;;;;;4.00;2.50;;;;;;;7.32;100.00;93574.94;5094379;28;20994;-80
2021/12/07 01:59:47;;;;;;;1.90;1.80;;;;;;;7.60;100.00;93571.41;4992422;28;20903;-79
2021/12/07 02:02:16;;;;;;;5.07;3.47;;;;;;;7.63;100.00;93559.84;4992111;28;20440;-79
2021/12/07 02:04:44;;;;;;;2.57;2.37;;;;;;;7.74;100.00;93557.84;4992109;28;20948;-79
2021/12/07 02:07:13;;;;;;;2.70;2.50;;;;;;;7.78;100.00;93569.63;4992359;28;20457;-79
2021/12/07 02:09:45;;;;;;;3.40;3.07;;;;;;;7.88;100.00;93566.16;4991883;28;20581;-79
2021/12/07 02:12:13;;;;;;;3.80;3.50;;;;;;;7.94;100.00;93553.34;4991938;28;20454;-79
2021/12/07 02:14:40;;;;;;;3.60;3.30;;;;;;;8.03;100.00;93546.41;4992140;28;20536;-79
2021/12/07 02:17:10;;;;;;;3.40;2.57;;;;;;;8.07;100.00;93542.50;4991775;28;20449;-79
2021/12/07 02:19:37;;;;;;;3.30;3.00;;;;;;;8.09;100.00;93545.81;4991777;28;20450;-80
2021/12/07 02:22:09;;;;;;;4.03;2.30;;;;;;;8.02;100.00;93542.97;4991623;28;20460;-80
2021/12/07 02:24:36;;;;;;;2.30;2.10;;;;;;;7.99;100.00;93540.66;4991694;28;20448;-79
2021/12/07 02:27:04;;;;;;;1.70;1.60;;;;;;;7.86;100.00;93548.03;4959080;28;20857;-79
2021/12/07 02:29:31;;;;;;;1.47;1.37;;;;;;;7.65;100.00;93547.47;4991490;28;20484;-79
2021/12/07 02:32:00;;;;;;;2.13;2.00;;;;;;;7.59;100.00;93555.88;4958494;28;20449;-79
2021/12/07 02:34:27;;;;;;;6.77;1.83;;;;;;;7.55;100.00;93546.69;5074194;28;20448;-79
2021/12/07 02:36:55;;;;;;;2.10;1.87;;;;;;;7.47;100.00;93542.19;5093479;28;20444;-79
2021/12/07 02:39:30;;;;;;;2.77;1.90;;;;;;;7.33;100.00;93543.50;5093319;28;20448;-79
2021/12/07 02:41:57;;;;;;;1.80;1.70;;;;;;;7.04;100.00;93540.16;5093580;28;20439;-78
2021/12/07 02:44:24;;;;;;;1.80;1.70;;;;;;;6.85;100.00;93538.41;5093095;28;20450;-79
2021/12/07 02:46:51;;;;;;;4.37;2.43;;;;;;;6.80;100.00;93541.47;5093508;28;20436;-79
2021/12/07 02:49:19;;;;;;;2.90;2.70;;;;;;;6.69;100.00;93543.41;5092829;28;20510;-79
2021/12/07 02:51:46;;;;;;;2.23;2.10;;;;;;;6.53;100.00;93538.75;5093393;28;20424;-79
2021/12/07 02:54:13;;;;;;;2.80;1.60;;;;;;;6.51;100.00;93538.06;5092860;28;20961;-79
2021/12/07 02:56:42;;;;;;;2.20;2.00;;;;;;;6.43;100.00;93543.16;5057394;28;20457;-79
2021/12/07 02:59:09;;;;;;;2.20;2.00;;;;;;;6.41;100.00;93552.91;5093453;28;20452;-79
2021/12/07 03:01:43;;;;;;;2.23;2.03;;;;;;;6.47;100.00;93544.53;5092706;28;20500;-79
2021/12/07 03:04:19;;;;;;;2.50;2.03;;;;;;;6.45;100.00;93541.25;5093081;28;20448;-79
2021/12/07 03:06:57;;;;;;;1.90;1.67;;;;;;;6.38;100.00;93547.97;5092958;28;20460;-79
2021/12/07 03:09:59;;;;;;;2.37;2.27;;;;;;;6.33;100.00;93552.75;5092612;28;20494;-79
2021/12/07 03:26:12;;;;;;;2.73;1.90;;;;;;;5.87;100.00;93536.00;5050092;28;20428;-79
2021/12/07 03:28:44;;;;;;;1.60;1.50;;;;;;;5.79;100.00;93525.44;5049991;28;20503;-78
2021/12/07 03:31:12;;;;;;;2.17;1.97;;;;;;;5.62;100.00;93531.28;5016742;28;20453;-79
2021/12/07 03:33:40;;;;;;;2.90;1.70;;;;;;;5.57;100.00;93532.50;5049816;28;20465;-78
2021/12/07 03:36:09;;;;;;;2.97;2.10;;;;;;;5.52;100.00;93526.91;5049907;28;20448;-79
2021/12/07 03:38:36;;;;;;;5.37;2.23;;;;;;;5.51;100.00;93535.66;5049760;28;20438;-79
2021/12/07 03:41:03;;;;;;;2.90;2.17;;;;;;;5.51;100.00;93534.84;5050043;28;20478;-79
2021/12/07 03:43:31;;;;;;;2.70;2.13;;;;;;;5.52;100.00;93533.88;5000379;28;20437;-80
2021/12/07 03:46:00;;;;;;;2.03;1.83;;;;;;;5.53;100.00;93536.34;5049603;28;20449;-79
2021/12/07 03:48:28;;;;;;;2.97;1.90;;;;;;;5.57;100.00;93536.91;5049638;28;20441;-79
2021/12/07 03:50:55;;;;;;;3.23;1.60;;;;;;;5.55;100.00;93544.00;5049391;28;20862;-79
2021/12/07 03:53:22;;;;;;;1.93;1.40;;;;;;;5.46;100.00;93537.81;5090817;28;20457;-79
2021/12/07 03:55:49;;;;;;;1.73;1.63;;;;;;;5.35;100.00;93545.72;5091950;28;20440;-79
2021/12/07 03:58:16;;;;;;;1.97;1.80;;;;;;;5.36;100.00;93546.53;5092419;28;20443;-79
2021/12/07 04:00:47;;;;;;;1.87;1.77;;;;;;;5.36;100.00;93551.75;5092251;28;20451;-79
2021/12/07 04:03:17;;;;;;;2.13;1.93;;;;;;;5.40;100.00;93550.53;5092463;28;20435;-79
2021/12/07 04:05:49;;;;;;;2.80;2.30;;;;;;;5.53;100.00;93557.16;5092053;28;20985;-79
2021/12/07 04:08:18;;;;;;;4.30;2.53;;;;;;;5.60;100.00;93560.03;5092056;28;20926;-79
2021/12/07 04:10:45;;;;;;;3.13;2.57;;;;;;;5.57;100.00;93555.94;5092131;28;20484;-79
2021/12/07 04:13:12;;;;;;;3.07;2.77;;;;;;;5.73;100.00;93559.78;5092062;28;20953;-79
2021/12/07 04:15:39;;;;;;;2.23;2.00;;;;;;;5.82;100.00;93554.63;5091847;28;20450;-79
2021/12/07 04:18:07;;;;;;;2.30;2.10;;;;;;;5.86;100.00;93552.56;5091976;28;20439;-80
2021/12/07 04:20:36;;;;;;;4.00;2.37;;;;;;;5.87;100.00;93546.41;5092043;28;20670;-80
2021/12/07 04:23:03;;;;;;;3.37;2.30;;;;;;;5.87;100.00;93546.41;5073022;28;20443;-79
2021/12/07 04:25:30;;;;;;;2.27;2.07;;;;;;;5.93;100.00;93545.06;5091583;28;20435;-79
2021/12/07 04:27:58;;;;;;;4.47;4.00;;;;;;;5.82;100.00;93533.78;5091733;28;20942;-79
2021/12/07 04:30:30;;;;;;;1.90;1.67;;;;;;;5.76;100.00;93541.28;5092027;28;20476;-79
2021/12/07 04:32:58;;;;;;;2.57;2.37;;;;;;;5.73;100.00;93537.19;5091899;28;20444;-79
2021/12/07 04:35:26;;;;;;;2.53;1.70;;;;;;;5.66;100.00;93543.88;5091664;28;20443;-79
2021/12/07 04:37:55;;;;;;;3.97;2.00;;;;;;;5.50;100.00;93534.00;5092201;28;20445;-79
2021/12/07 04:40:25;;;;;;;1.73;1.63;;;;;;;5.51;100.00;93537.44;5091818;28;20934;-79
2021/12/07 04:42:53;;;;;;;1.70;1.60;;;;;;;5.48;100.00;93533.28;5091798;28;20432;-79
2021/12/07 04:45:31;;;;;;;1.60;1.50;;;;;;;5.45;100.00;93532.75;5092084;28;20439;-79
2021/12/07 04:48:12;;;;;;;2.93;2.63;;;;;;;5.32;100.00;93537.38;5091711;28;20471;-79
2021/12/07 04:58:53;;;;;;;5.23;3.40;;;;;;;5.14;100.00;93537.97;5095349;28;20430;-79
2021/12/07 05:01:21;;;;;;;8.10;3.83;;;;;;;5.22;100.00;93545.16;5095235;28;20496;-79
2021/12/07 05:03:49;;;;;;;4.57;3.40;;;;;;;5.25;100.00;93545.69;5060067;28;20447;-77
2021/12/07 05:06:18;;;;;;;3.80;2.90;;;;;;;5.03;100.00;93545.06;5096517;28;20432;-77
2021/12/07 05:08:54;;;;;;;2.67;2.23;;;;;;;4.95;100.00;93536.13;5096018;28;20938;-76
2021/12/07 05:11:32;;;;;;;2.73;2.43;;;;;;;4.93;100.00;93545.84;5096144;28;20470;-79
2021/12/07 05:14:14;;;;;;;2.90;2.33;;;;;;;4.85;100.00;93543.03;5096698;28;20431;-78
2021/12/07 05:16:51;;;;;;;3.03;2.60;;;;;;;4.78;100.00;93539.31;5095757;28;20447;-78
2021/12/07 05:25:02;;;;;;;2.97;2.67;;;;;;;4.73;100.00;93541.50;5080298;28;20508;-77
2021/12/07 05:38:48;;;;;;;6.73;3.33;;;;;;;4.39;100.00;93519.28;4994186;28;20432;-81
2021/12/07 05:41:17;;;;;;;5.40;3.70;;;;;;;4.48;100.00;93526.28;4994131;28;20432;-80
2021/12/07 05:43:44;;;;;;;20.93;5.33;;;;;;;4.40;100.00;93528.72;4943320;28;20971;-81
2021/12/07 05:46:11;;;;;;;5.03;3.33;;;;;;;4.33;100.00;93525.78;5020029;28;20465;-81
2021/12/07 05:48:38;;;;;;;3.10;2.80;;;;;;;4.33;100.00;93526.59;5033411;28;20442;-80
2021/12/07 05:51:05;;;;;;;2.63;2.43;;;;;;;4.15;100.00;93527.31;5033306;28;21022;-82
2021/12/07 05:53:32;;;;;;;6.40;3.20;;;;;;;4.12;100.00;93522.34;5032451;28;20545;-81
2021/12/07 05:55:59;;;;;;;6.43;3.10;;;;;;;4.04;100.00;93528.16;5032446;28;20442;-81
2021/12/07 05:58:27;;;;;;;6.40;3.47;;;;;;;4.08;100.00;93520.97;5032648;28;20450;-81
2021/12/07 06:00:58;;;;;;;2.70;2.50;;;;;;;4.03;100.00;93524.72;5032961;28;20450;-82
2021/12/07 06:03:25;;;;;;;4.20;3.00;;;;;;;4.01;100.00;93533.59;5042119;28;20443;-81
2021/12/07 06:05:53;;;;;;;10.37;5.37;;;;;;;3.95;100.00;93526.31;5076454;28;21066;-81
2021/12/07 06:08:20;;;;;;;4.23;3.83;;;;;;;3.85;100.00;93528.00;5095424;28;20436;-81
2021/12/07 06:10:47;;;;;;;4.30;2.70;;;;;;;3.83;100.00;93529.91;5095267;28;20478;-80
2021/12/07 06:13:15;;;;;;;3.67;3.37;;;;;;;3.85;100.00;93530.59;5095171;28;20435;-81
2021/12/07 06:15:45;;;;;;;6.50;4.07;;;;;;;3.83;100.00;93524.72;5095149;28;20435;-80
2021/12/07 06:18:12;;;;;;;3.73;3.37;;;;;;;3.84;100.00;93528.97;5095073;28;20443;-80
2021/12/07 06:20:41;;;;;;;7.77;4.83;;;;;;;3.82;100.00;93536.06;5095080;28;20882;-81
2021/12/07 06:23:09;;;;;;;7.03;3.87;;;;;;;3.80;100.00;93532.75;5076569;28;20960;-80
2021/12/07 06:25:36;;;;;;;6.00;4.30;;;;;;;3.87;100.00;93528.72;5094036;28;20440;-80
2021/12/07 06:28:03;;;;;;;6.97;4.40;;;;;;;3.87;100.00;93526.94;5093824;28;20544;-80
2021/12/07 06:30:30;;;;;;;7.33;5.63;;;;;;;3.76;100.00;93523.53;5057880;28;20483;-80
2021/12/07 06:32:58;;;;;;;10.83;5.47;;;;;;;3.80;100.00;93532.75;5093251;28;20444;-80
2021/12/07 06:35:25;;;;;;;5.60;2.60;;;;;;;3.72;100.00;93516.00;5074061;28;20454;-80
2021/12/07 06:37:52;;;;;;;4.83;3.43;;;;;;;3.84;100.00;93531.56;5093456;28;20438;-79
2021/12/07 06:40:19;;;;;;;3.60;3.30;;;;;;;3.82;100.00;93530.84;5093091;28;20470;-81
2021/12/07 06:42:46;;;;;;;3.73;3.43;;;;;;;3.78;100.00;93532.06;5057409;28;20432;-80
2021/12/07 06:45:13;;;;;;;5.20;3.60;;;;;;;3.76;100.00;93532.19;5094382;28;20443;-80
2021/12/07 06:47:41;;;;;;;6.30;4.00;;;;;;;3.73;100.00;93530.63;5095000;28;20436;-79
2021/12/07 06:50:12;;;;;;;5.70;3.23;;;;;;;3.80;100.00;93533.56;5094407;28;20965;-79
2021/12/07 06:52:39;;;;;;;3.83;3.50;;;;;;;3.66;100.00;93534.66;5093946;28;20424;-80
2021/12/07 06:58:46;;;;;;;11.60;6.10;;;;;;;3.60;100.00;93532.56;5094148;28;20403;-80
2021/12/07 07:01:13;;;;;;;9.50;5.83;;;;;;;3.57;100.00;93538.00;5073700;28;20432;-80
2021/12/07 07:03:41;;;;;;;10.47;6.60;;;;;;;3.61;100.00;93536.81;5073637;28;20436;-80
2021/12/07 07:06:10;;;;;;;8.60;6.17;;;;;;;3.68;100.00;93524.16;5073953;28;20439;-80
2021/12/07 07:08:37;;;;;;;7.17;4.90;;;;;;;3.68;100.00;93535.38;5073603;28;20432;-80
2021/12/07 07:11:05;;;;;;;8.47;6.70;;;;;;;3.73;100.00;93535.81;5038890;28;20484;-80
2021/12/07 07:13:32;;;;;;;7.23;6.53;;;;;;;3.76;100.00;93536.50;5073994;28;20437;-81
2021/12/07 07:16:00;;;;;;;8.23;5.10;;;;;;;3.62;100.00;93538.44;5071440;28;20440;-81
2021/12/07 07:18:27;;;;;;;6.23;4.60;;;;;;;3.52;100.00;93534.94;5073361;28;20527;-81
2021/12/07 07:20:55;;;;;;;7.23;5.53;;;;;;;3.49;100.00;93527.41;5073695;28;20441;-81
2021/12/07 07:23:24;;;;;;;6.40;5.67;;;;;;;3.47;100.00;93531.91;5073969;28;20417;-81
2021/12/07 07:25:55;;;;;;;10.30;7.60;;;;;;;3.39;100.00;93527.31;5073609;28;20470;-81
2021/12/07 07:31:43;;;;;;;7.03;4.90;;;;;;;3.16;100.00;93522.25;5073319;28;20452;-80
2021/12/07 07:34:10;;;;;;;4.83;4.13;;;;;;;3.20;100.00;93529.72;5071226;28;20449;-80
2021/12/07 07:36:37;;;;;;;6.80;4.83;;;;;;;3.13;100.00;93527.69;5073470;28;20441;-79
2021/12/07 07:39:06;;;;;;;4.93;4.37;;;;;;;3.17;100.00;93529.91;5054864;28;20451;-80
2021/12/07 07:41:33;;;;;;;6.67;4.70;;;;;;;3.23;100.00;93529.47;5038279;28;20440;-79
2021/12/07 07:44:00;;;;;;;7.57;4.87;;;;;;;3.15;100.00;93530.97;5073129;28;20440;-80
2021/12/07 07:46:27;;;;;;;4.47;3.80;;;;;;;3.14;100.00;93529.34;5073279;28;20444;-80
2021/12/07 07:48:54;;;;;;;7.13;5.50;;;;;;;3.17;100.00;93531.69;5053943;28;20464;-81
2021/12/07 07:51:21;;;;;;;6.73;5.90;;;;;;;3.10;100.00;93528.75;5072957;28;20475;-81
2021/12/07 07:53:50;;;;;;;7.37;5.70;;;;;;;3.08;100.00;93526.28;5073140;28;20436;-80
2021/12/07 07:56:18;;;;;;;4.03;3.30;;;;;;;3.01;100.00;93519.94;5064921;28;20447;-81
2021/12/07 07:58:45;;;;;;;5.83;4.97;;;;;;;2.89;100.00;93510.53;5073129;28;20435;-81
2021/12/07 08:01:12;;;;;;;5.43;4.23;;;;;;;2.89;100.00;93523.47;5073233;28;20904;-80
2021/12/07 08:03:39;;;;;;;5.03;4.63;;;;;;;2.87;100.00;93516.75;5073573;28;20441;-81
2021/12/07 08:06:06;;;;;;;4.37;4.00;;;;;;;2.83;100.00;93517.94;5038063;28;20447;-81
2021/12/07 08:08:33;;;;;;;4.87;3.87;;;;;;;2.76;100.00;93520.16;5072946;28;20436;-80
2021/12/07 08:11:01;;;;;;;4.17;3.60;;;;;;;2.82;100.00;93524.06;5073394;28;20484;-81
2021/12/07 08:13:31;;;;;;;6.07;4.77;;;;;;;2.87;100.00;93532.28;5073753;28;20452;-81
2021/12/07 08:15:59;;;;;;;3.27;2.97;;;;;;;2.76;100.00;93512.41;5072832;28;20827;-81
2021/12/07 08:18:26;;;;;;;6.97;3.77;;;;;;;2.80;100.00;93531.94;5073066;28;20429;-81
2021/12/07 08:20:53;;;;;;;8.33;4.30;;;;;;;2.88;100.00;93527.00;5072972;28;20447;-80
2021/12/07 08:23:20;;;;;;;4.07;3.67;;;;;;;2.93;100.00;93530.06;5072721;28;20444;-80
2021/12/07 08:25:49;;;;;;;3.23;2.93;;;;;;;2.80;100.00;93524.16;5073049;28;20463;-79
2021/12/07 08:28:19;;;;;;;3.63;3.33;;;;;;;2.78;100.00;93537.25;5073044;28;20440;-79
2021/12/07 08:30:53;;;;;;;2.50;2.30;;;;;;;2.75;100.00;93534.06;5076808;28;20580;-80
2021/12/07 08:33:20;;;;;;;4.63;3.57;;;;;;;2.76;100.00;93536.53;5076431;28;20439;-80
2021/12/07 08:35:48;;;;;;;4.73;3.53;;;;;;;2.74;100.00;93532.41;5076798;28;20448;-80
2021/12/07 08:38:15;;;;;;;3.73;3.43;;;;;;;2.76;100.00;93540.88;5076854;28;20442;-80
2021/12/07 08:40:43;;;;;;;3.90;3.60;;;;;;;2.73;100.00;93539.38;5076696;28;20439;-80
2021/12/07 08:43:12;;;;;;;4.27;3.67;;;;;;;2.75;100.00;93549.59;5076315;28;20438;-81
2021/12/07 08:49:03;;;;;;;9.80;8.83;;;;;;;2.71;100.00;93563.72;5075336;28;20470;-80
2021/12/07 08:51:30;;;;;;;8.37;6.00;;;;;;;2.76;100.00;93564.19;5076056;28;20490;-80
2021/12/07 08:54:04;;;;;;;4.43;4.07;;;;;;;2.74;100.00;93569.50;5058067;28;20444;-80
2021/12/07 09:01:59;;;;;;;5.70;4.90;;;;;;;2.72;100.00;93580.91;5076023;28;20457;-80
2021/12/07 09:04:28;;;;;;;4.73;3.80;;;;;;;2.71;100.00;93574.09;5075864;28;21017;-80
2021/12/07 09:06:55;;;;;;;3.87;3.57;;;;;;;2.73;100.00;93567.84;5076104;28;20448;-80
2021/12/07 09:09:22;;;;;;;3.93;3.43;;;;;;;2.78;100.00;93567.50;5076018;28;20440;-81
2021/12/07 09:11:49;;;;;;;4.40;4.00;;;;;;;2.86;100.00;93562.56;5075984;28;20488;-81
2021/12/07 09:14:18;;;;;;;8.20;4.13;;;;;;;2.80;100.00;93557.84;5076166;28;20781;-81
2021/12/07 09:16:46;;;;;;;4.03;3.70;;;;;;;2.73;100.00;93547.13;5076335;28;20523;-81
2021/12/07 09:19:13;;;;;;;4.20;3.43;;;;;;;2.73;100.00;93554.06;5075966;28;20464;-81
2021/12/07 09:21:42;;;;;;;4.43;4.07;;;;;;;2.71;100.00;93548.19;4992010;28;20459;-81
2021/12/07 09:24:10;;;;;;;7.63;5.20;;;;;;;2.73;100.00;93557.50;5075907;28;20190;-81
2021/12/07 09:26:37;;;;;;;4.07;3.67;;;;;;;2.78;100.00;93555.38;5076132;28;20439;-81
2021/12/07 09:29:05;;;;;;;3.73;3.43;;;;;;;2.72;100.00;93565.38;5075638;28;20432;-81
2021/12/07 09:31:32;;;;;;;2.90;2.70;;;;;;;2.69;100.00;93561.25;5075513;28;20476;-81
2021/12/07 09:34:00;;;;;;;3.43;3.13;;;;;;;2.70;100.00;93556.91;5075742;28;20443;-80
2021/12/07 09:36:27;;;;;;;3.50;3.20;;;;;;;2.72;100.00;93534.31;5075423;28;20432;-80
2021/12/07 09:38:55;;;;;;;4.30;3.90;;;;;;;2.65;100.00;93543.47;5075293;28;20452;-81
2021/12/07 09:41:22;;;;;;;3.57;2.93;;;;;;;2.69;100.00;93547.50;5074800;28;20445;-81
2021/12/07 09:43:50;;;;;;;3.30;3.10;;;;;;;2.75;100.00;93549.59;5075071;28;20449;-81
2021/12/07 09:46:20;;;;;;;4.43;3.90;;;;;;;2.83;100.00;93542.06;5074657;28;20463;-81
2021/12/07 09:48:48;;;;;;;4.20;3.90;;;;;;;2.91;100.00;93549.28;5075377;28;20445;-81
2021/12/07 09:51:19;;;;;;;4.73;4.30;;;;;;;2.88;100.00;93537.34;5074929;28;21002;-81
2021/12/07 09:53:46;;;;;;;4.10;3.00;;;;;;;2.90;100.00;93552.81;5074497;28;20456;-81
2021/12/07 09:56:15;;;;;;;4.23;3.90;;;;;;;2.99;100.00;93552.91;5075242;28;20436;-80
2021/12/07 09:58:43;;;;;;;4.60;4.20;;;;;;;3.04;100.00;93557.75;5075357;28;20444;-81
2021/12/07 10:01:11;;;;;;;5.27;4.33;;;;;;;3.18;100.00;93556.66;5074650;28;20490;-81
2021/12/07 10:03:40;;;;;;;4.70;4.20;;;;;;;3.20;100.00;93555.63;5075198;28;20440;-80
2021/12/07 10:06:08;;;;;;;4.20;3.80;;;;;;;3.20;100.00;93554.81;5073551;28;20532;-81
2021/12/07 10:08:35;;;;;;;4.37;3.83;;;;;;;3.04;100.00;93555.16;5055277;28;20460;-80
2021/12/07 10:11:04;;;;;;;4.50;4.10;;;;;;;3.09;100.00;93550.44;5062314;28;20464;-80
2021/12/07 10:13:33;;;;;;;11.27;7.80;;;;;;;3.11;100.00;93556.31;5075076;28;20440;-80
2021/12/07 10:16:03;;;;;;;4.90;4.50;;;;;;;3.03;100.00;93550.91;5074625;28;20926;-80
2021/12/07 10:28:56;;;;;;;6.60;5.10;;;;;;;2.98;100.00;93535.72;5074508;28;20495;-80
2021/12/07 10:31:28;;;;;;;7.03;5.63;;;;;;;2.97;100.00;93534.06;5072343;28;20502;-80
2021/12/07 10:33:59;;;;;;;6.00;5.40;;;;;;;2.99;100.00;93521.00;5072163;28;20455;-80
2021/12/07 10:36:28;;;;;;;5.80;4.60;;;;;;;3.05;100.00;93523.94;5055681;28;20436;-80
2021/12/07 10:38:59;;;;;;;4.50;3.93;;;;;;;2.95;100.00;93525.59;5074174;28;20444;-80
2021/12/07 10:41:26;;;;;;;5.83;4.00;;;;;;;2.89;100.00;93526.06;5072362;28;20448;-81
2021/12/07 10:50:41;;;;;;;4.67;3.57;;;;;;;2.76;100.00;93522.75;5044542;28;20515;-81
2021/12/07 10:53:08;;;;;;;3.47;2.80;;;;;;;2.74;100.00;93522.88;5063700;28;20464;-81
2021/12/07 10:55:34;;;;;;;4.50;4.10;;;;;;;2.74;100.00;93517.69;5073910;28;20424;-81
2021/12/07 10:58:05;;;;;;;4.33;4.00;;;;;;;2.76;100.00;93500.28;5073672;28;20428;-81
2021/12/07 11:00:36;;;;;;;3.57;3.23;;;;;;;2.72;100.00;93503.22;5074127;28;20536;-81
2021/12/07 11:03:05;;;;;;;6.87;6.20;;;;;;;2.73;100.00;93491.91;5073958;28;20452;-80
2021/12/07 11:05:34;;;;;;;6.37;5.70;;;;;;;2.82;100.00;93493.78;5073775;28;20923;-80
2021/12/07 11:08:05;;;;;;;6.30;5.23;;;;;;;2.77;100.00;93491.56;5073539;28;20455;-80
2021/12/07 11:10:34;;;;;;;6.10;4.30;;;;;;;2.77;100.00;93477.78;5074809;28;20812;-81
2021/12/07 11:13:09;;;;;;;4.73;4.27;;;;;;;2.81;100.00;93492.16;5073381;28;20484;-81
2021/12/07 11:15:42;;;;;;;5.13;3.03;;;;;;;2.75;100.00;93498.63;5074130;28;20490;-80
2021/12/07 11:18:11;;;;;;;4.93;4.10;;;;;;;2.78;100.00;93500.16;5073754;28;20456;-81
2021/12/07 11:20:39;;;;;;;3.73;3.50;;;;;;;2.86;100.00;93515.91;5068456;28;20480;-81
2021/12/07 11:23:12;;;;;;;3.20;3.00;;;;;;;2.77;100.00;93504.50;5073757;28;20446;-81
2021/12/07 11:31:19;;;;;;;3.70;3.33;;;;;;;2.92;100.00;93494.75;5073421;28;20439;-81
2021/12/07 11:33:47;;;;;;;4.47;3.80;;;;;;;2.93;100.00;93493.81;5073589;28;20433;-81
2021/12/07 11:36:20;;;;;;;3.90;3.60;;;;;;;3.03;100.00;93486.94;5073795;28;20796;-82
2021/12/07 11:38:49;;;;;;;9.23;5.20;;;;;;;2.94;100.00;93494.63;5073226;28;20523;-81
2021/12/07 11:41:20;;;;;;;5.23;4.73;;;;;;;2.98;100.00;93493.44;5073476;28;20448;-81
2021/12/07 11:43:57;;;;;;;4.30;3.53;;;;;;;2.92;100.00;93493.94;5073468;28;20533;-84
2021/12/07 11:46:25;;;;;;;4.80;4.40;;;;;;;2.89;100.00;93494.13;5073390;28;20447;-81
2021/12/07 11:49:10;;;;;;;7.33;4.93;;;;;;;3.03;100.00;93507.69;5072963;28;20459;-81
2021/12/07 11:51:37;;;;;;;4.77;4.10;;;;;;;3.34;100.00;93494.91;5072390;28;20507;-81
2021/12/07 11:54:06;;;;;;;13.00;7.13;;;;;;;3.18;100.00;93495.31;5054249;28;20430;-82
2021/12/07 11:56:35;;;;;;;5.73;5.03;;;;;;;3.06;100.00;93480.72;5073929;28;20448;-81
2021/12/07 11:59:02;;;;;;;5.00;4.60;;;;;;;2.92;100.00;93489.56;5073732;28;20432;-80
2021/12/07 12:04:51;;;;;;;4.37;3.57;;;;;;;2.95;100.00;93489.31;5076706;28;20451;-83
2021/12/07 12:07:19;;;;;;;9.97;5.77;;;;;;;2.86;100.00;93490.03;5077661;28;20448;-80
2021/12/07 12:09:50;;;;;;;6.50;4.83;;;;;;;2.88;100.00;93497.66;5077435;28;20536;-81
2021/12/07 12:12:25;;;;;;;7.03;6.27;;;;;;;2.87;100.00;93483.91;5077082;28;20507;-82
2021/12/07 12:15:03;;;;;;;3.80;3.50;;;;;;;2.84;100.00;93478.97;5077037;28;20432;-81
2021/12/07 12:17:39;;;;;;;4.80;4.37;;;;;;;2.76;100.00;93483.91;5076897;28;20438;-82
2021/12/07 12:20:27;;;;;;;6.13;4.90;;;;;;;2.80;100.00;93485.31;5077380;28;20447;-81
2021/12/07 12:29:41;;;;;;;9.93;6.03;;;;;;;2.89;100.00;93474.25;5076196;28;20944;-82
2021/12/07 12:32:09;;;;;;;7.17;4.80;;;;;;;2.87;100.00;93476.13;5056321;28;20488;-81
2021/12/07 12:34:38;;;;;;;7.03;5.60;;;;;;;2.84;100.00;93472.94;5075411;28;20497;-81
2021/12/07 12:37:08;;;;;;;4.87;4.47;;;;;;;2.90;100.00;93477.69;5075837;28;20789;-82
2021/12/07 12:39:51;;;;;;;5.60;5.10;;;;;;;2.87;100.00;93480.47;5075765;28;20454;-82
2021/12/07 12:42:30;;;;;;;6.37;4.87;;;;;;;2.80;100.00;93487.91;5075022;28;20818;-82
2021/12/07 12:45:02;;;;;;;11.40;5.40;;;;;;;2.79;100.00;93494.03;5075290;28;20442;-81
2021/12/07 12:47:31;;;;;;;11.60;7.47;;;;;;;2.70;100.00;93482.63;5075599;28;20935;-82
2021/12/07 12:50:11;;;;;;;5.60;5.10;;;;;;;2.74;100.00;93493.56;5056630;28;20444;-82
2021/12/07 12:52:41;;;;;;;8.50;7.70;;;;;;;2.60;100.00;93498.97;5075036;28;20822;-80
2021/12/07 12:55:28;;;;;;;9.13;6.33;;;;;;;2.56;100.00;93488.03;5074720;28;20429;-80
2021/12/07 12:57:55;;;;;;;10.17;8.33;;;;;;;2.57;100.00;93488.84;5074995;28;20444;-80
2021/12/07 13:00:24;;;;;;;12.70;9.20;;;;;;;2.59;100.00;93502.50;5074994;28;20869;-81
2021/12/07 13:02:53;;;;;;;6.90;5.67;;;;;;;2.63;100.00;93514.28;5074810;28;20812;-81
2021/12/07 13:05:35;;;;;;;9.83;8.83;;;;;;;2.66;100.00;93508.88;5074795;28;20443;-80
2021/12/07 13:08:14;;;;;;;11.90;9.30;;;;;;;2.63;100.00;93499.59;5074552;28;20526;-80
2021/12/07 13:10:56;;;;;;;11.87;9.80;;;;;;;2.60;100.00;93505.00;5074594;28;20501;-81
2021/12/07 13:13:30;;;;;;;23.90;15.33;;;;;;;2.55;100.00;93511.44;5075065;28;20480;-80
2021/12/07 13:15:59;;;;;;;18.27;12.87;;;;;;;2.55;100.00;93508.84;5074258;28;20447;-81
2021/12/07 13:18:32;;;;;;;11.27;9.07;;;;;;;2.48;100.00;93509.31;5074509;28;20447;-81
2021/12/07 13:20:59;;;;;;;19.43;12.90;;;;;;;2.62;100.00;93507.47;5074594;28;20436;-81
2021/12/07 13:23:31;;;;;;;6.30;5.53;;;;;;;2.67;100.00;93516.53;5074949;28;20440;-81
2021/12/07 13:25:58;;;;;;;9.60;7.77;;;;;;;2.66;100.00;93512.28;5074476;28;21030;-81
2021/12/07 13:28:27;;;;;;;6.53;5.87;;;;;;;2.68;100.00;93507.00;5074614;28;20448;-81
2021/12/07 13:31:05;;;;;;;7.83;6.37;;;;;;;2.64;100.00;93523.72;5074123;28;20931;-80
2021/12/07 13:33:38;;;;;;;4.43;4.07;;;;;;;2.57;100.00;93510.38;5074369;28;20491;-81
2021/12/07 13:36:34;;;;;;;6.90;5.17;;;;;;;2.57;100.00;93518.16;5074137;28;20448;-81
2021/12/07 13:39:09;;;;;;;5.63;5.13;;;;;;;2.58;100.00;93516.38;5074512;28;20452;-80